Time;durP1;ratioP1;P1;durP2;ratioP2;P2;SDS_P1;SDS_P2;PMS_P1;PMS_P2;Temp;Humidity;BMP_temperature;BMP_pressure;BME280_temperature;BME280_humidity;BME280_pressure;Samples;Min_cycle;Max_cycle;Signal;HPM_P1;HPM_P2
2023/02/28 00:02:23;;;;;;;26.60;13.50;;;;;;;-0.89;96.79;99138.84;52429;1255;1016316;-77
2023/02/28 00:04:52;;;;;;;31.90;15.00;;;;;;;-0.88;96.53;99137.86;52449;1258;1061328;-77
2023/02/28 00:07:19;;;;;;;35.00;21.10;;;;;;;-0.86;96.24;99143.84;52304;1254;1016514;-77
2023/02/28 00:09:45;;;;;;;35.30;17.40;;;;;;;-0.87;96.13;99148.61;52444;1254;1016073;-77
2023/02/28 00:12:12;;;;;;;43.70;18.90;;;;;;;-0.91;96.32;99149.55;52414;1254;1072344;-77
2023/02/28 00:14:39;;;;;;;38.90;18.60;;;;;;;-0.92;96.28;99151.48;52457;1259;1017461;-77
2023/02/28 00:17:05;;;;;;;39.40;18.80;;;;;;;-0.91;96.59;99156.87;52392;1254;1071923;-77
2023/02/28 00:19:32;;;;;;;37.70;20.60;;;;;;;-0.90;96.64;99153.28;52398;1254;1014664;-77
2023/02/28 00:21:59;;;;;;;37.70;18.10;;;;;;;-0.88;96.44;99155.19;52401;1259;1073250;-77
2023/02/28 00:24:25;;;;;;;32.20;17.20;;;;;;;-0.90;97.07;99156.15;52413;1254;1015781;-76
2023/02/28 00:26:52;;;;;;;36.90;16.30;;;;;;;-0.90;96.93;99160.07;52394;1254;1053328;-76
2023/02/28 00:29:18;;;;;;;29.80;14.70;;;;;;;-0.90;97.84;99162.17;52326;1260;1015878;-77
2023/02/28 00:31:45;;;;;;;36.00;18.20;;;;;;;-0.89;97.96;99165.41;52402;1259;1061045;-77
2023/02/28 00:34:12;;;;;;;30.10;15.10;;;;;;;-0.87;97.04;99165.20;52386;1254;1016018;-77
2023/02/28 00:36:40;;;;;;;29.50;14.90;;;;;;;-0.88;96.73;99168.90;52354;1260;1077635;-78
2023/02/28 00:39:07;;;;;;;28.70;14.10;;;;;;;-0.91;96.85;99161.98;52396;1254;1016482;-77
2023/02/28 00:41:33;;;;;;;33.00;14.40;;;;;;;-0.92;97.35;99157.99;52445;1254;1016617;-78
2023/02/28 00:44:00;;;;;;;32.10;14.60;;;;;;;-0.92;98.11;99157.63;52408;1254;1071801;-77
2023/02/28 00:46:27;;;;;;;30.70;14.90;;;;;;;-0.90;97.05;99159.88;52417;1257;1015979;-77
2023/02/28 00:48:53;;;;;;;34.70;14.60;;;;;;;-0.92;96.95;99159.20;52448;1254;1070977;-77
2023/02/28 00:51:20;;;;;;;31.60;14.50;;;;;;;-0.92;96.95;99158.30;52412;1259;1016317;-77
2023/02/28 00:53:46;;;;;;;33.60;15.20;;;;;;;-0.94;97.33;99159.87;52409;1260;1053767;-77
2023/02/28 00:56:13;;;;;;;32.30;15.50;;;;;;;-0.96;97.66;99160.20;52372;1254;1016398;-77
2023/02/28 00:58:40;;;;;;;37.20;17.90;;;;;;;-0.96;98.34;99157.05;52400;1259;1061393;-77
2023/02/28 01:01:06;;;;;;;33.20;17.80;;;;;;;-0.96;98.23;99159.02;52400;1258;1015686;-78
2023/02/28 01:03:33;;;;;;;36.90;19.90;;;;;;;-0.97;98.93;99153.23;52406;1254;1075703;-78
2023/02/28 01:06:00;;;;;;;33.70;17.90;;;;;;;-0.99;99.78;99145.74;52432;1257;1016329;-77
2023/02/28 01:08:26;;;;;;;36.90;18.30;;;;;;;-0.99;99.19;99140.02;52415;1254;1071539;-77
2023/02/28 01:10:53;;;;;;;38.00;18.10;;;;;;;-1.00;99.51;99141.20;52402;1254;1017008;-77
2023/02/28 01:13:20;;;;;;;35.90;16.90;;;;;;;-0.99;98.84;99143.02;52463;1260;1073326;-77
2023/02/28 01:15:51;;;;;;;31.70;14.50;;;;;;;-1.00;98.49;99135.17;52382;1260;1016172;-77
2023/02/28 01:18:18;;;;;;;33.50;15.00;;;;;;;-1.01;98.26;99131.94;52414;1259;1051284;-77
2023/02/28 01:20:45;;;;;;;25.80;12.80;;;;;;;-1.03;97.86;99128.15;52375;1259;1016498;-77
2023/02/28 01:23:12;;;;;;;28.60;13.00;;;;;;;-1.05;97.63;99129.95;52440;1259;1058834;-77
2023/02/28 01:25:39;;;;;;;26.90;13.00;;;;;;;-1.09;97.57;99135.15;52393;1259;1016041;-77
2023/02/28 01:28:06;;;;;;;37.10;15.40;;;;;;;-1.09;97.51;99140.84;52445;1260;1077426;-77
2023/02/28 01:30:32;;;;;;;27.70;15.00;;;;;;;-1.08;97.43;99142.16;52386;1255;1016470;-78
2023/02/28 01:32:59;;;;;;;29.40;14.90;;;;;;;-1.11;97.58;99138.05;52384;1254;1069536;-77
2023/02/28 01:35:26;;;;;;;35.30;16.20;;;;;;;-1.10;98.30;99141.15;52526;1254;1016408;-77
2023/02/28 01:37:52;;;;;;;28.60;14.40;;;;;;;-1.07;98.23;99139.67;52359;1254;1073757;-77
2023/02/28 01:40:19;;;;;;;28.30;14.60;;;;;;;-1.06;98.05;99134.77;52378;1260;1016509;-77
2023/02/28 01:42:46;;;;;;;38.20;16.30;;;;;;;-1.05;97.72;99136.23;52372;1260;1053788;-76
2023/02/28 01:45:22;;;;;;;33.90;15.30;;;;;;;-1.09;98.56;99139.96;52398;1259;1016431;-77
2023/02/28 01:47:51;;;;;;;29.20;15.40;;;;;;;-1.11;99.35;99132.39;52347;1257;1059054;-77
2023/02/28 01:50:19;;;;;;;36.60;15.50;;;;;;;-1.10;99.70;99126.27;52371;1260;1016065;-77
2023/02/28 01:52:46;;;;;;;35.10;17.30;;;;;;;-1.10;99.02;99124.86;52413;1260;1073088;-77
2023/02/28 01:55:13;;;;;;;33.60;15.60;;;;;;;-1.11;98.27;99119.63;52354;1254;1016325;-77
2023/02/28 01:57:46;;;;;;;29.20;14.40;;;;;;;-1.13;98.23;99116.81;52397;1259;1071830;-77
2023/02/28 02:00:15;;;;;;;40.80;17.00;;;;;;;-1.13;98.22;99118.41;52384;1259;1060430;-77
2023/02/28 02:02:42;;;;;;;29.10;14.10;;;;;;;-1.15;97.99;99117.27;52414;1260;1016420;-77
2023/02/28 02:05:11;;;;;;;33.30;15.30;;;;;;;-1.18;97.73;99120.22;52385;1254;1017627;-77
2023/02/28 02:07:39;;;;;;;29.60;15.70;;;;;;;-1.21;97.68;99119.90;52378;1260;1073614;-78
2023/02/28 02:10:15;;;;;;;29.10;14.10;;;;;;;-1.22;97.56;99116.77;52476;1259;1016070;-77
2023/02/28 02:13:05;;;;;;;30.40;14.40;;;;;;;-1.21;97.44;99117.60;52403;1259;1050512;-77
2023/02/28 02:15:35;;;;;;;38.90;23.60;;;;;;;-1.23;97.48;99118.71;52389;1254;1053486;-77
2023/02/28 02:18:08;;;;;;;30.40;14.60;;;;;;;-1.21;97.39;99117.40;52416;1254;1018462;-77
2023/02/28 02:20:45;;;;;;;28.30;14.10;;;;;;;-1.22;97.26;99120.20;52360;1260;1053236;-77
2023/02/28 02:23:26;;;;;;;33.30;12.80;;;;;;;-1.26;97.12;99112.45;52404;1254;1050566;-77
2023/02/28 02:26:11;;;;;;;33.80;15.60;;;;;;;-1.28;97.30;99114.30;52351;1254;1051036;-77
2023/02/28 02:28:59;;;;;;;30.30;14.10;;;;;;;-1.27;97.39;99112.48;52402;1254;1053218;-77
2023/02/28 02:32:04;;;;;;;31.00;13.90;;;;;;;-1.28;97.02;99109.91;52414;1255;1051214;-77
2023/02/28 02:34:42;;;;;;;25.50;13.40;;;;;;;-1.27;97.19;99105.89;52288;1266;1051163;-77
2023/02/28 06:10:01;;;;;;;;;;;;;;;-4.04;100.00;99238.38;53403;1259;1050272;-77
2023/02/28 06:12:28;;;;;;;45.90;21.80;;;;;;;-4.03;100.00;99235.16;52420;1254;1016237;-78
2023/02/28 06:14:54;;;;;;;49.20;22.90;;;;;;;-4.01;100.00;99234.94;52437;1254;1075151;-77
2023/02/28 06:17:21;;;;;;;62.10;28.30;;;;;;;-3.98;100.00;99238.16;52498;1256;1018067;-77
2023/02/28 06:19:48;;;;;;;43.60;22.00;;;;;;;-3.93;100.00;99239.63;52386;1254;1074239;-77
2023/02/28 06:22:15;;;;;;;82.10;44.70;;;;;;;-3.88;100.00;99236.32;52427;1254;1016136;-77
2023/02/28 06:24:41;;;;;;;84.10;41.20;;;;;;;-3.81;100.00;99237.81;52384;1257;1073067;-77
2023/02/28 06:27:08;;;;;;;64.40;29.80;;;;;;;-3.73;100.00;99241.73;52374;1257;1016421;-77
2023/02/28 06:29:35;;;;;;;55.00;29.00;;;;;;;-3.69;100.00;99243.13;52414;1254;1053118;-77
2023/02/28 06:32:01;;;;;;;60.90;31.20;;;;;;;-3.65;100.00;99245.34;52317;1254;1016397;-78
2023/02/28 06:34:28;;;;;;;58.80;29.40;;;;;;;-3.60;100.00;99241.48;52375;1254;1058858;-77
2023/02/28 06:36:55;;;;;;;74.40;33.30;;;;;;;-3.57;100.00;99245.55;52419;1257;1018701;-77
2023/02/28 06:39:21;;;;;;;55.50;25.10;;;;;;;-3.48;100.00;99248.45;52399;1254;1076305;-78
2023/02/28 06:41:48;;;;;;;46.00;21.70;;;;;;;-3.35;100.00;99245.41;52443;1257;1016145;-77
2023/02/28 06:44:16;;;;;;;43.40;21.60;;;;;;;-3.25;100.00;99245.34;52429;1254;1071870;-78
2023/02/28 06:46:43;;;;;;;39.80;20.10;;;;;;;-3.13;100.00;99243.61;52413;1254;1016698;-77
2023/02/28 06:49:10;;;;;;;55.10;25.30;;;;;;;-2.99;100.00;99245.44;52366;1259;1071204;-78
2023/02/28 06:51:39;;;;;;;47.30;21.20;;;;;;;-2.87;100.00;99245.20;52465;1257;1016447;-77
2023/02/28 06:54:08;;;;;;;42.00;20.80;;;;;;;-2.77;100.00;99250.70;52421;1254;1051793;-77
2023/02/28 06:56:35;;;;;;;42.70;21.00;;;;;;;-2.68;100.00;99245.98;52504;1257;1016328;-78
2023/02/28 06:59:02;;;;;;;72.60;36.30;;;;;;;-2.53;100.00;99251.24;52392;1254;1016250;-78
2023/02/28 07:01:29;;;;;;;50.40;23.20;;;;;;;-2.43;100.00;99249.39;52586;1254;1060808;-78
2023/02/28 07:03:55;;;;;;;41.80;21.20;;;;;;;-2.41;100.00;99249.81;53371;1254;1016879;-77
2023/02/28 07:06:22;;;;;;;39.50;18.90;;;;;;;-2.30;100.00;99253.85;52498;1254;1074099;-79
2023/02/28 07:08:50;;;;;;;42.80;18.60;;;;;;;-2.18;100.00;99256.47;52589;1258;1015774;-78
2023/02/28 07:11:16;;;;;;;37.30;17.80;;;;;;;-2.10;99.95;99258.98;52398;1255;1071668;-78
2023/02/28 07:13:43;;;;;;;40.60;21.40;;;;;;;-2.07;99.74;99258.85;52469;1254;1016120;-77
2023/02/28 07:16:10;;;;;;;49.30;21.30;;;;;;;-1.96;99.76;99260.38;52620;1254;1071518;-78
2023/02/28 07:18:37;;;;;;;35.20;18.70;;;;;;;-1.85;99.43;99266.30;52677;1254;1016340;-78
2023/02/28 07:21:05;;;;;;;38.00;20.10;;;;;;;-1.66;99.51;99265.65;52769;1254;1051675;-78
2023/02/28 07:23:31;;;;;;;39.00;19.60;;;;;;;-1.52;98.43;99262.98;52575;1254;1016478;-78
2023/02/28 07:25:58;;;;;;;55.50;30.30;;;;;;;-1.29;99.71;99265.63;52626;1254;1058503;-78
2023/02/28 07:28:25;;;;;;;53.10;28.60;;;;;;;-1.18;98.94;99262.41;52543;1257;1016360;-77
2023/02/28 07:30:51;;;;;;;66.70;35.10;;;;;;;-0.97;99.21;99262.95;53814;1254;1073018;-78
2023/02/28 07:33:18;;;;;;;47.50;27.40;;;;;;;-0.64;95.97;99265.48;54006;1254;1016115;-79
2023/02/28 07:35:44;;;;;;;28.10;19.10;;;;;;;-0.57;91.84;99264.96;53859;1253;1070552;-77
2023/02/28 07:38:13;;;;;;;32.80;19.10;;;;;;;-0.24;91.42;99267.35;53956;1256;1016251;-78
2023/02/28 07:40:39;;;;;;;39.50;18.20;;;;;;;0.16;89.29;99269.09;53930;1254;1071481;-78
2023/02/28 07:43:06;;;;;;;35.90;16.10;;;;;;;0.43;86.10;99269.81;53972;1253;1015267;-78
2023/02/28 07:45:34;;;;;;;35.50;16.50;;;;;;;0.57;85.53;99270.45;53984;1254;1051259;-78
2023/02/28 07:48:00;;;;;;;25.60;13.80;;;;;;;0.70;85.37;99270.86;53860;1254;1015721;-77
2023/02/28 07:50:30;;;;;;;29.00;17.40;;;;;;;0.96;88.95;99271.55;52525;1254;1058611;-78
2023/02/28 07:52:58;;;;;;;26.90;15.90;;;;;;;1.32;86.80;99269.35;52718;1254;1018791;-78
2023/02/28 07:55:25;;;;;;;23.90;13.70;;;;;;;2.01;82.17;99267.91;52591;1254;1016389;-79
2023/02/28 07:57:52;;;;;;;24.80;14.00;;;;;;;2.77;82.15;99274.35;52608;1257;1017823;-79
2023/02/28 08:00:19;;;;;;;24.80;15.00;;;;;;;3.08;82.42;99272.42;52633;1254;1074117;-75
2023/02/28 08:02:45;;;;;;;25.10;14.70;;;;;;;3.10;87.72;99271.85;52635;1254;1016782;-75
2023/02/28 08:05:12;;;;;;;48.40;24.20;;;;;;;2.99;89.24;99272.22;52463;1257;1070779;-78
2023/02/28 08:07:39;;;;;;;26.40;15.40;;;;;;;2.82;90.97;99275.36;52488;1254;1019979;-78
2023/02/28 08:10:06;;;;;;;35.00;18.90;;;;;;;2.54;90.22;99271.48;52552;1257;1070309;-78
2023/02/28 08:12:33;;;;;;;40.00;20.60;;;;;;;2.14;89.50;99269.83;53885;1257;1016283;-79
2023/02/28 08:14:59;;;;;;;19.90;10.70;;;;;;;1.73;85.64;99264.17;52682;1254;1051397;-79
2023/02/28 08:17:26;;;;;;;18.80;11.00;;;;;;;1.37;79.83;99266.41;52502;1254;1016162;-78
2023/02/28 08:19:53;;;;;;;33.00;22.10;;;;;;;1.24;82.44;99266.10;52453;1257;1058925;-78
2023/02/28 08:22:19;;;;;;;36.30;16.40;;;;;;;1.21;84.54;99264.68;52551;1254;1015996;-78
2023/02/28 08:24:46;;;;;;;28.70;14.30;;;;;;;1.09;83.55;99265.58;52507;1254;1075319;-78
2023/02/28 08:27:13;;;;;;;30.70;14.50;;;;;;;0.94;84.00;99265.05;52348;1260;1016060;-78
2023/02/28 08:29:39;;;;;;;16.30;10.30;;;;;;;0.79;80.97;99263.66;52478;1254;1069685;-77
2023/02/28 08:32:06;;;;;;;12.30;6.80;;;;;;;0.73;80.91;99263.31;52505;1258;1015730;-78
2023/02/28 08:34:33;;;;;;;24.40;15.10;;;;;;;0.91;79.65;99262.66;52499;1257;1073826;-79
2023/02/28 08:37:00;;;;;;;32.80;15.60;;;;;;;1.86;79.13;99262.55;52380;1254;1016083;-79
2023/02/28 08:39:27;;;;;;;27.20;10.70;;;;;;;3.57;78.41;99262.30;52451;1254;1050453;-76
2023/02/28 08:41:53;;;;;;;27.90;16.10;;;;;;;5.56;73.56;99261.61;52448;1256;1016396;-75
2023/02/28 08:44:20;;;;;;;295.80;144.60;;;;;;;6.72;70.14;99260.90;52464;1254;1058529;-75
2023/02/28 08:46:47;;;;;;;25.30;15.00;;;;;;;8.20;62.50;99254.95;52439;1254;1015950;-77
2023/02/28 08:49:13;;;;;;;27.00;14.10;;;;;;;9.33;56.32;99260.35;52467;1257;1073302;-77
2023/02/28 08:51:40;;;;;;;20.10;9.40;;;;;;;10.13;53.40;99252.45;52708;1257;1016520;-76
2023/02/28 08:54:07;;;;;;;15.00;8.10;;;;;;;10.60;48.98;99255.17;52676;1254;1069955;-76
2023/02/28 08:56:34;;;;;;;15.30;8.60;;;;;;;9.88;41.54;99251.34;52597;1254;1016430;-77
2023/02/28 08:59:01;;;;;;;70.80;35.00;;;;;;;11.15;44.16;99251.54;52792;1254;1072954;-77
2023/02/28 09:01:28;;;;;;;16.50;9.00;;;;;;;11.55;41.03;99249.00;53883;1254;1016220;-77
2023/02/28 09:03:55;;;;;;;21.00;11.80;;;;;;;10.40;41.68;99252.85;53456;1254;1051500;-78
2023/02/28 09:06:25;;;;;;;53.50;28.60;;;;;;;8.31;41.80;99245.73;52513;1254;1015867;-78
2023/02/28 09:08:52;;;;;;;15.10;9.40;;;;;;;6.80;42.87;99250.52;52548;1256;1015985;-76
2023/02/28 09:11:18;;;;;;;13.80;7.90;;;;;;;5.57;44.53;99249.66;52392;1257;1058436;-76
2023/02/28 09:13:45;;;;;;;11.30;6.70;;;;;;;4.71;44.90;99247.38;52457;1254;1016196;-76
2023/02/28 09:16:13;;;;;;;22.80;13.00;;;;;;;3.77;46.35;99246.16;52446;1257;1075463;-76
2023/02/28 09:18:40;;;;;;;41.00;19.90;;;;;;;3.18;48.74;99246.54;52525;1254;1015906;-77
2023/02/28 09:21:11;;;;;;;53.80;26.30;;;;;;;2.83;51.85;99247.53;53851;1258;1069744;-77
2023/02/28 09:23:38;;;;;;;41.60;20.10;;;;;;;2.54;52.79;99248.10;52504;1254;1069481;-76
2023/02/28 09:26:05;;;;;;;51.10;24.30;;;;;;;2.51;52.38;99254.25;52400;1254;1016544;-77
2023/02/28 09:28:31;;;;;;;12.40;8.10;;;;;;;2.11;52.75;99247.45;52424;1254;1073127;-76
2023/02/28 09:30:58;;;;;;;27.90;14.50;;;;;;;1.78;54.60;99243.56;52414;1254;1016089;-78
2023/02/28 09:33:25;;;;;;;32.90;16.70;;;;;;;1.72;55.04;99245.04;52392;1254;1050967;-77
2023/02/28 09:35:58;;;;;;;42.60;24.00;;;;;;;1.50;54.71;99244.39;52441;1259;1016411;-77
2023/02/28 09:38:24;;;;;;;19.30;11.60;;;;;;;1.44;55.77;99242.23;52508;1254;1058714;-77
2023/02/28 09:41:02;;;;;;;20.60;11.10;;;;;;;1.42;56.08;99241.88;52345;1254;1016304;-77
2023/02/28 09:43:33;;;;;;;77.10;34.70;;;;;;;1.28;56.25;99240.94;52464;1254;1075900;-77
2023/02/28 09:46:20;;;;;;;237.40;106.00;;;;;;;1.35;56.76;99243.80;52435;1254;1075896;-77
2023/02/28 09:48:48;;;;;;;87.80;44.80;;;;;;;1.41;56.77;99245.23;52385;1257;1075153;-77
2023/02/28 09:51:21;;;;;;;459.00;209.60;;;;;;;1.41;56.55;99242.40;52417;1254;1016256;-77
2023/02/28 09:53:48;;;;;;;99.20;47.00;;;;;;;1.46;57.29;99246.56;52532;1254;1072034;-78
2023/02/28 09:56:27;;;;;;;40.10;20.60;;;;;;;1.49;57.49;99244.34;52418;1254;1016263;-79
2023/02/28 09:58:56;;;;;;;26.40;11.50;;;;;;;1.65;57.19;99245.06;52418;1257;1070740;-78
2023/02/28 10:01:31;;;;;;;59.50;30.90;;;;;;;1.80;56.93;99243.36;52660;1254;1019674;-78
2023/02/28 10:04:24;;;;;;;52.10;26.00;;;;;;;1.89;56.61;99246.54;52404;1256;1072000;-78
2023/02/28 10:06:51;;;;;;;33.50;18.60;;;;;;;1.86;57.44;99242.19;52362;1257;1073909;-77
2023/02/28 10:09:26;;;;;;;30.20;17.10;;;;;;;1.87;57.29;99241.00;52450;1257;1016304;-77
2023/02/28 10:11:54;;;;;;;21.40;11.60;;;;;;;2.00;57.01;99239.87;52444;1257;1051246;-77
2023/02/28 10:14:24;;;;;;;23.00;11.80;;;;;;;2.03;56.70;99242.68;52427;1258;1015874;-77
2023/02/28 10:17:07;;;;;;;69.10;34.10;;;;;;;2.08;56.66;99242.96;52412;1255;1061127;-78
2023/02/28 10:19:41;;;;;;;21.00;10.70;;;;;;;2.20;56.30;99242.67;52420;1254;1058336;-78
2023/02/28 10:22:15;;;;;;;42.20;19.90;;;;;;;2.21;55.89;99242.92;52429;1256;1059853;-77
2023/02/28 10:24:44;;;;;;;25.10;11.20;;;;;;;2.25;55.91;99245.49;52460;1254;1058895;-77
2023/02/28 10:27:24;;;;;;;11.30;7.40;;;;;;;2.17;56.15;99249.27;52484;1254;1016141;-79
2023/02/28 10:29:55;;;;;;;15.40;7.40;;;;;;;1.79;55.73;99236.91;52462;1257;1058312;-77
2023/02/28 10:32:28;;;;;;;12.90;6.80;;;;;;;1.72;56.65;99234.55;52472;1254;1061299;-77
2023/02/28 10:35:20;;;;;;;99.50;54.30;;;;;;;1.87;57.58;99234.79;52448;1254;1058066;-78
2023/02/28 10:37:53;;;;;;;19.80;12.30;;;;;;;2.18;57.03;99235.59;52544;1254;1059297;-76
2023/02/28 10:40:22;;;;;;;15.20;8.90;;;;;;;2.30;56.84;99227.91;52561;1254;1058516;-77
2023/02/28 10:43:00;;;;;;;23.00;9.80;;;;;;;2.33;57.54;99226.02;52598;1254;1020199;-77
2023/02/28 10:45:28;;;;;;;50.30;20.50;;;;;;;2.42;57.16;99224.09;52540;1258;1058342;-77
2023/02/28 10:48:00;;;;;;;19.40;9.60;;;;;;;2.49;56.61;99221.45;52489;1254;1016838;-76
2023/02/28 10:50:32;;;;;;;21.20;11.50;;;;;;;2.51;56.83;99218.70;52509;1254;1058743;-76
2023/02/28 10:53:32;;;;;;;17.00;8.00;;;;;;;2.45;56.81;99213.92;52533;1255;1058087;-77
2023/02/28 10:56:20;;;;;;;22.50;9.30;;;;;;;2.42;57.35;99209.10;52402;1254;1058693;-76
2023/02/28 10:59:01;;;;;;;20.10;9.30;;;;;;;2.41;57.24;99203.99;52538;1254;1058589;-76
2023/02/28 11:01:34;;;;;;;21.30;11.40;;;;;;;2.49;57.61;99200.48;52521;1254;1059777;-77
2023/02/28 11:04:01;;;;;;;15.80;9.50;;;;;;;2.36;56.13;99198.77;52516;1254;1058669;-78
2023/02/28 11:06:32;;;;;;;12.20;7.20;;;;;;;2.18;55.91;99199.78;52499;1254;1020082;-77
2023/02/28 11:09:22;;;;;;;15.90;7.60;;;;;;;1.92;55.26;99197.58;52464;1254;1072788;-77
2023/02/28 11:11:49;;;;;;;13.90;7.30;;;;;;;2.05;57.18;99194.58;52523;1254;1072181;-78
2023/02/28 11:14:34;;;;;;;14.50;9.00;;;;;;;2.09;57.61;99195.38;52462;1254;1016256;-77
2023/02/28 11:17:25;;;;;;;31.00;8.70;;;;;;;2.27;58.04;99190.45;52532;1257;1068954;-77
2023/02/28 11:20:03;;;;;;;13.70;7.70;;;;;;;2.40;57.78;99187.27;52575;1254;1070012;-77
2023/02/28 11:22:31;;;;;;;14.40;7.30;;;;;;;2.44;57.26;99184.08;52427;1254;1070228;-78
2023/02/28 11:25:06;;;;;;;12.70;7.50;;;;;;;2.46;57.05;99182.19;52453;1254;1016305;-78
2023/02/28 11:27:33;;;;;;;11.90;7.20;;;;;;;2.46;56.75;99179.52;52436;1254;1069040;-77
2023/02/28 11:30:00;;;;;;;13.30;8.30;;;;;;;2.44;57.25;99174.70;52511;1254;1016380;-77
2023/02/28 11:32:28;;;;;;;16.30;8.40;;;;;;;2.31;56.74;99175.91;52446;1257;1069591;-77
2023/02/28 11:35:10;;;;;;;12.90;7.70;;;;;;;2.37;56.99;99178.58;52413;1257;1016435;-77
2023/02/28 11:37:38;;;;;;;14.40;7.90;;;;;;;2.35;56.95;99173.99;52351;1257;1069472;-77
2023/02/28 11:40:15;;;;;;;17.00;8.30;;;;;;;2.39;57.37;99164.79;52438;1254;1016379;-78
2023/02/28 11:43:00;;;;;;;15.50;7.40;;;;;;;2.43;56.88;99159.45;52433;1257;1051435;-77
2023/02/28 11:46:05;;;;;;;19.90;8.30;;;;;;;2.34;56.76;99159.42;52417;1257;1053355;-77
2023/02/28 11:48:56;;;;;;;20.40;10.50;;;;;;;2.19;56.37;99161.48;52371;1254;1054297;-77
2023/02/28 11:51:39;;;;;;;13.70;8.30;;;;;;;2.16;56.75;99160.52;52425;1257;1051278;-77
2023/02/28 11:54:34;;;;;;;22.10;11.20;;;;;;;2.22;57.25;99158.91;52434;1256;1053555;-78
2023/02/28 11:57:09;;;;;;;17.80;8.70;;;;;;;2.33;56.94;99163.82;52460;1254;1052620;-77
2023/02/28 11:59:45;;;;;;;11.70;7.70;;;;;;;2.20;56.24;99166.73;52429;1259;1051469;-78
2023/02/28 12:02:28;;;;;;;12.00;7.20;;;;;;;2.10;56.42;99170.00;52516;1254;1051518;-78
2023/02/28 12:05:32;;;;;;;21.10;8.40;;;;;;;2.00;56.15;99165.95;52476;1257;1050852;-76
2023/02/28 12:08:21;;;;;;;12.90;7.00;;;;;;;1.98;56.33;99159.56;52341;1254;1126480;-77
2023/02/28 12:11:04;;;;;;;13.50;7.10;;;;;;;2.07;57.17;99158.66;52521;1258;1051104;-78
2023/02/28 12:13:38;;;;;;;14.40;7.20;;;;;;;2.13;57.05;99157.88;52415;1257;1053852;-78
2023/02/28 12:16:14;;;;;;;13.90;6.90;;;;;;;2.23;57.12;99160.24;52395;1260;1050245;-78
2023/02/28 12:18:53;;;;;;;14.40;8.60;;;;;;;2.34;56.88;99155.10;52475;1254;1051441;-79
2023/02/28 12:21:30;;;;;;;12.40;7.70;;;;;;;2.36;57.08;99158.40;52475;1254;1053449;-78
2023/02/28 12:24:24;;;;;;;12.20;7.20;;;;;;;2.44;57.14;99155.92;52554;1257;1051319;-76
2023/02/28 12:26:50;;;;;;;11.40;6.70;;;;;;;2.48;56.96;99160.93;52801;1254;1051401;-77
2023/02/28 12:29:28;;;;;;;11.60;7.10;;;;;;;2.46;56.85;99159.02;52413;1259;1015612;-77
2023/02/28 12:32:06;;;;;;;10.70;5.70;;;;;;;2.51;57.16;99150.94;52654;1254;1057883;-77
2023/02/28 12:34:36;;;;;;;11.30;6.50;;;;;;;2.56;57.31;99147.53;52584;1254;1058736;-76
2023/02/28 12:37:07;;;;;;;11.80;7.20;;;;;;;2.54;55.88;99149.63;52962;1254;1016148;-76
2023/02/28 12:39:37;;;;;;;17.40;8.20;;;;;;;2.52;55.57;99145.95;52547;1259;1061262;-76
2023/02/28 12:42:07;;;;;;;10.90;7.00;;;;;;;2.55;56.25;99149.84;52568;1254;1017900;-77
2023/02/28 12:44:37;;;;;;;19.00;7.50;;;;;;;2.49;55.81;99148.52;52612;1254;1059404;-75
2023/02/28 12:47:05;;;;;;;16.30;8.60;;;;;;;2.55;56.78;99142.34;52488;1254;1016420;-77
2023/02/28 12:49:39;;;;;;;13.90;7.80;;;;;;;2.73;56.67;99144.62;52496;1260;1016289;-77
2023/02/28 12:52:07;;;;;;;26.80;12.10;;;;;;;2.67;55.46;99144.36;52628;1254;1073341;-77
2023/02/28 12:54:57;;;;;;;12.70;7.50;;;;;;;2.68;56.29;99139.91;52479;1254;1015832;-76
2023/02/28 12:57:31;;;;;;;14.20;7.30;;;;;;;2.67;56.49;99136.29;52589;1259;1069510;-77
2023/02/28 13:00:11;;;;;;;11.60;6.80;;;;;;;2.75;56.62;99138.29;52488;1254;1069630;-77
2023/02/28 13:02:58;;;;;;;15.20;7.60;;;;;;;2.72;55.77;99136.76;52881;1254;1070220;-77
2023/02/28 13:05:27;;;;;;;9.70;5.80;;;;;;;2.69;55.62;99136.24;52568;1259;1069846;-77
2023/02/28 13:08:22;;;;;;;13.30;7.30;;;;;;;2.67;55.90;99138.48;52628;1254;1016125;-76
2023/02/28 13:10:54;;;;;;;24.30;9.00;;;;;;;2.70;56.22;99134.48;52624;1254;1070078;-77
2023/02/28 13:13:26;;;;;;;18.30;9.00;;;;;;;2.65;55.65;99131.59;52611;1254;1068286;-77
2023/02/28 13:16:09;;;;;;;14.40;7.50;;;;;;;2.66;55.72;99131.14;52913;1254;1070428;-78
2023/02/28 13:18:46;;;;;;;31.80;14.50;;;;;;;2.69;56.03;99131.64;52730;1259;1071585;-77
2023/02/28 13:21:24;;;;;;;15.80;7.90;;;;;;;2.77;56.50;99130.46;52693;1254;1070222;-77
2023/02/28 13:23:58;;;;;;;12.10;7.20;;;;;;;2.88;56.33;99125.33;53947;1254;1069210;-78
2023/02/28 13:26:30;;;;;;;17.10;8.80;;;;;;;2.86;56.36;99127.94;53378;1254;1069996;-77
2023/02/28 13:29:04;;;;;;;13.50;7.50;;;;;;;2.86;55.73;99126.16;52672;1257;1072004;-78
2023/02/28 13:31:33;;;;;;;12.70;7.40;;;;;;;2.86;55.53;99125.27;53085;1254;1069320;-78
2023/02/28 13:34:04;;;;;;;19.10;10.80;;;;;;;2.87;55.98;99120.80;52765;1259;1016221;-77
2023/02/28 13:36:31;;;;;;;15.40;10.60;;;;;;;2.83;55.17;99111.95;52607;1258;1069478;-78
2023/02/28 13:39:03;;;;;;;58.70;31.40;;;;;;;2.81;55.81;99110.91;52627;1254;1016438;-77
2023/02/28 13:41:30;;;;;;;17.10;9.80;;;;;;;2.76;55.40;99108.89;52585;1254;1073208;-77
2023/02/28 13:44:10;;;;;;;18.40;9.60;;;;;;;2.69;55.46;99109.08;52524;1257;1017471;-77
2023/02/28 13:46:57;;;;;;;18.50;10.10;;;;;;;2.75;55.71;99107.36;52607;1256;1050946;-78
2023/02/28 13:49:28;;;;;;;14.80;8.50;;;;;;;2.76;55.42;99104.10;52575;1254;1053679;-78
2023/02/28 13:52:13;;;;;;;19.10;8.20;;;;;;;2.71;55.24;99101.02;52512;1254;1051131;-77
2023/02/28 13:54:43;;;;;;;13.50;8.40;;;;;;;2.68;55.84;99101.05;52494;1259;1051726;-77
2023/02/28 13:57:28;;;;;;;23.60;9.50;;;;;;;2.71;55.87;99097.46;52657;1259;1016331;-77
2023/02/28 14:00:05;;;;;;;18.00;9.70;;;;;;;2.70;56.28;99094.83;52504;1258;1050668;-78
2023/02/28 14:02:54;;;;;;;15.00;8.40;;;;;;;2.71;55.75;99096.56;52495;1254;1051267;-77
2023/02/28 14:05:25;;;;;;;15.70;8.60;;;;;;;2.70;56.16;99098.54;52484;1256;1051630;-77
2023/02/28 14:07:53;;;;;;;17.90;8.80;;;;;;;2.73;55.82;99095.40;52551;1254;1054212;-78
2023/02/28 14:10:30;;;;;;;18.20;13.60;;;;;;;2.77;55.81;99090.97;52597;1262;1016112;-78
2023/02/28 14:12:58;;;;;;;22.70;11.30;;;;;;;2.81;56.39;99090.85;52574;1259;1050986;-77
2023/02/28 14:15:30;;;;;;;19.00;12.40;;;;;;;2.79;56.01;99086.19;52573;1254;1016258;-77
2023/02/28 14:17:59;;;;;;;33.20;20.30;;;;;;;2.82;56.42;99087.41;52609;1254;1061797;-76
2023/02/28 14:20:29;;;;;;;16.60;10.20;;;;;;;2.81;56.17;99084.02;52547;1254;1015630;-77
2023/02/28 14:23:15;;;;;;;16.80;9.90;;;;;;;2.80;56.75;99083.20;52492;1254;1058367;-77
2023/02/28 14:25:48;;;;;;;23.10;10.70;;;;;;;2.78;56.62;99085.37;52554;1254;1058088;-77
2023/02/28 14:28:17;;;;;;;15.70;9.20;;;;;;;2.67;56.19;99083.74;52606;1254;1058568;-78
2023/02/28 14:31:07;;;;;;;134.70;57.80;;;;;;;2.70;56.71;99080.98;52599;1254;1016115;-78
2023/02/28 14:34:12;;;;;;;36.40;18.40;;;;;;;2.73;57.02;99079.43;53470;1258;1057869;-77
2023/02/28 14:36:40;;;;;;;19.00;10.50;;;;;;;2.80;56.99;99080.30;52408;1267;1060392;-77
2023/02/28 14:39:14;;;;;;;15.30;8.40;;;;;;;2.73;56.13;99078.11;52649;1254;1015574;-77
2023/02/28 14:41:42;;;;;;;18.80;10.70;;;;;;;2.74;56.82;99077.92;52737;1259;1072415;-77
2023/02/28 14:44:20;;;;;;;18.20;8.70;;;;;;;2.65;56.32;99079.13;52759;1254;1017512;-78
2023/02/28 14:46:54;;;;;;;30.30;14.40;;;;;;;2.53;56.74;99079.48;52757;1254;1072460;-77
2023/02/28 14:49:41;;;;;;;37.10;18.90;;;;;;;2.64;57.50;99083.07;52746;1254;1071708;-77
2023/02/28 14:52:29;;;;;;;27.10;10.80;;;;;;;2.66;57.50;99083.62;52523;1257;1071518;-78
2023/02/28 14:54:58;;;;;;;21.60;9.90;;;;;;;2.79;57.35;99080.46;52718;1254;1069837;-77
2023/02/28 14:57:27;;;;;;;14.60;7.80;;;;;;;3.47;56.30;99083.85;52685;1255;1016208;-77
2023/02/28 15:00:03;;;;;;;24.60;11.80;;;;;;;4.20;54.85;99088.01;53040;1254;1016432;-77
2023/02/28 15:02:33;;;;;;;20.10;9.40;;;;;;;4.47;53.07;99090.52;52690;1254;1070186;-78
2023/02/28 15:05:09;;;;;;;17.50;11.10;;;;;;;4.76;52.77;99089.66;52457;1254;1016161;-77